Cleveland, Ohio
Traffic Map
Current Weather Conditions
Cleveland, Ohio
Overcast
Overcast
28°
Feels Like: 18°
Wind Chill: 18° Ceiling: 3700
Heat Index: 28° Visibility: 10mi
Dew Point: 17° Wind: 12mph
Humidity: 63% Direction: 210° (SSW)
Pressure: 29.96in Gusts: 0mph
Raw Report DataKBKL 160453Z AUTO 21010KT 10SM BKN037 OVC047 M02/M08 A2996 RMK AO2 SLP153 T10221083 410221111
Traffic Incident Summary
Active as of:
Severity:
Category:
InformationThere was an issue retrieving the traffic information for this location. Please try a different location or try again shortly.
Advertisements